Lampang, Thailand

11:01 AM ICT on July 26, 2014 (GMT +0700)
Chiang Mai International (VTCC) Elev 1030 ft | 18.77 °N, 98.97 °E | Change Station

Current weather conditions updated 31 minutes ago

Scattered Clouds
Scattered Clouds
84 °F
Feels Like 90 °F
N
5
Wind Variable Wind from SE

Today is forecast to be Cooler than yesterday. Thunderstorms.

Today
High -- | Low -- °F
--% Chance of Precip.
Yesterday
High -- | Low -- °F
Precip. -- in
5:57 AM 6:58 PM
Waning Crescent, 1% visible
Pressure 29.86 in
Visibility 6.2 miles
Clouds Mostly Cloudy 3500 ft
Scattered Clouds 11000 ft
Heat Index 90 °F
Dew Point 72 °F
Humidity 66%
Rainfall 0.00 in
Snow Depth Not available.
UV 12 out of 12
Pollen Not available.
Air Quality Not available.
Flu Activity Not available.
METAR VTCC 260330Z 14004KT 9999 BKN035 SCT110 29/22 Q1011 A2987 NOSIG

More Conditions Fewer Conditions

Pressure 29.86 in
Visibility 6.2 miles
Clouds Mostly Cloudy 3500 ft
Scattered Clouds 11000 ft
Heat Index 90 °F
Dew Point 72 °F
Humidity 66%
Rainfall 0.00 in
Snow Depth Not available.
UV 12 out of 12
Pollen Not available.
Air Quality Not available.
Flu Activity Not available.
METAR VTCC 260330Z 14004KT 9999 BKN035 SCT110 29/22 Q1011 A2987 NOSIG

More Conditions Fewer Conditions

10-Day Weather Forecast

Almanac

Astronomy

Jul. 26, 2014 Rise Set
Actual Time 5:57 AM ICT 6:58 PM ICT
Civil Twilight 5:34 AM ICT 7:22 PM ICT
Nautical Twilight 5:06 AM ICT 7:49 PM ICT
Astronomical Twilight 4:38 AM ICT 8:18 PM ICT
Moon 5:15 AM ICT 6:23 PM ICT
Length of Visible Light 13h 47m
Length of Day
13h 01m
Tomorrow will be 0m 41s shorter.
Waning Crescent, 1% of the Moon is Illuminated
Today
Waning Crescent
Jul 26
New
Aug 3
First Quarter
Aug 10
Full
Aug 17
Last Quarter

Yesterday's Extremes

Country Highs Country Lows

Community

WunderPhotos

Upload Photos

1,737,504 photos uploaded!

Nearby

Snow Depth

Not available.

Earthquake Activity

City Distance Mag. Time & Date
No recent earthquake activity has been reported nearby.
Minimum magnitude displayed is 2.5.

Coastal Water Temperatures

Place Temperature
No Stations Reporting

Nearby Weather Stations

There are no personal weather stations in this area.